sensor_id;sensor_type;location;lat;lon;timestamp;temperature;humidity
4596;DHT22;2310;49.978;8.742;2023-04-24T00:02:04;14.60;99.90
4596;DHT22;2310;49.978;8.742;2023-04-24T00:06:07;14.70;99.90
4596;DHT22;2310;49.978;8.742;2023-04-24T00:10:11;14.60;99.90
4596;DHT22;2310;49.978;8.742;2023-04-24T00:14:13;14.80;99.90
4596;DHT22;2310;49.978;8.742;2023-04-24T00:18:14;14.80;99.90
4596;DHT22;2310;49.978;8.742;2023-04-24T00:22:16;14.70;99.90
4596;DHT22;2310;49.978;8.742;2023-04-24T00:26:17;14.50;99.90
4596;DHT22;2310;49.978;8.742;2023-04-24T00:30:18;14.30;99.90
4596;DHT22;2310;49.978;8.742;2023-04-24T00:34:19;14.40;99.90
4596;DHT22;2310;49.978;8.742;2023-04-24T00:38:20;14.50;99.90
4596;DHT22;2310;49.978;8.742;2023-04-24T00:42:23;14.70;99.90
4596;DHT22;2310;49.978;8.742;2023-04-24T00:46:24;14.70;99.90
4596;DHT22;2310;49.978;8.742;2023-04-24T00:50:26;14.50;99.90
4596;DHT22;2310;49.978;8.742;2023-04-24T00:54:27;14.70;99.90
4596;DHT22;2310;49.978;8.742;2023-04-24T00:58:28;14.60;99.90
4596;DHT22;2310;49.978;8.742;2023-04-24T01:02:30;14.40;99.90
4596;DHT22;2310;49.978;8.742;2023-04-24T01:06:31;14.40;99.90
4596;DHT22;2310;49.978;8.742;2023-04-24T01:10:34;14.50;99.90
4596;DHT22;2310;49.978;8.742;2023-04-24T01:14:37;14.30;99.90
4596;DHT22;2310;49.978;8.742;2023-04-24T01:18:39;14.40;99.90
4596;DHT22;2310;49.978;8.742;2023-04-24T01:22:41;14.40;99.90
4596;DHT22;2310;49.978;8.742;2023-04-24T01:26:42;14.40;99.90
4596;DHT22;2310;49.978;8.742;2023-04-24T01:30:44;14.30;99.90
4596;DHT22;2310;49.978;8.742;2023-04-24T01:34:46;14.20;99.90
4596;DHT22;2310;49.978;8.742;2023-04-24T01:38:48;14.00;99.90
4596;DHT22;2310;49.978;8.742;2023-04-24T01:42:49;14.20;99.90
4596;DHT22;2310;49.978;8.742;2023-04-24T01:46:50;14.00;99.90
4596;DHT22;2310;49.978;8.742;2023-04-24T01:50:52;13.80;99.90
4596;DHT22;2310;49.978;8.742;2023-04-24T01:54:53;13.80;99.90
4596;DHT22;2310;49.978;8.742;2023-04-24T01:58:57;13.80;99.90
4596;DHT22;2310;49.978;8.742;2023-04-24T02:02:58;13.90;99.90
4596;DHT22;2310;49.978;8.742;2023-04-24T02:06:59;13.80;99.90
4596;DHT22;2310;49.978;8.742;2023-04-24T02:11:01;13.80;99.90
4596;DHT22;2310;49.978;8.742;2023-04-24T02:15:03;13.70;99.90
4596;DHT22;2310;49.978;8.742;2023-04-24T02:19:05;13.80;99.90
4596;DHT22;2310;49.978;8.742;2023-04-24T02:23:06;13.80;99.90
4596;DHT22;2310;49.978;8.742;2023-04-24T02:27:07;13.70;99.90
4596;DHT22;2310;49.978;8.742;2023-04-24T02:31:08;13.80;99.90
4596;DHT22;2310;49.978;8.742;2023-04-24T02:35:09;13.60;99.90
4596;DHT22;2310;49.978;8.742;2023-04-24T02:39:11;13.80;99.90
4596;DHT22;2310;49.978;8.742;2023-04-24T02:43:12;13.80;99.90
4596;DHT22;2310;49.978;8.742;2023-04-24T02:47:13;13.90;99.90
4596;DHT22;2310;49.978;8.742;2023-04-24T02:51:14;13.80;99.90
4596;DHT22;2310;49.978;8.742;2023-04-24T02:55:16;13.60;99.90
4596;DHT22;2310;49.978;8.742;2023-04-24T02:59:17;13.70;99.90
4596;DHT22;2310;49.978;8.742;2023-04-24T03:03:18;13.70;99.90
4596;DHT22;2310;49.978;8.742;2023-04-24T03:07:19;13.60;99.90
4596;DHT22;2310;49.978;8.742;2023-04-24T03:11:21;13.50;99.90
4596;DHT22;2310;49.978;8.742;2023-04-24T03:15:22;13.50;99.90
4596;DHT22;2310;49.978;8.742;2023-04-24T03:19:24;13.50;99.90
4596;DHT22;2310;49.978;8.742;2023-04-24T03:23:25;13.30;99.90
4596;DHT22;2310;49.978;8.742;2023-04-24T03:27:26;13.50;99.90
4596;DHT22;2310;49.978;8.742;2023-04-24T03:31:27;13.50;99.90
4596;DHT22;2310;49.978;8.742;2023-04-24T03:35:29;13.50;99.90
4596;DHT22;2310;49.978;8.742;2023-04-24T03:39:30;13.40;99.90
4596;DHT22;2310;49.978;8.742;2023-04-24T03:43:32;13.30;99.90
4596;DHT22;2310;49.978;8.742;2023-04-24T03:47:35;13.10;99.90
4596;DHT22;2310;49.978;8.742;2023-04-24T03:51:36;13.10;99.90
4596;DHT22;2310;49.978;8.742;2023-04-24T03:55:37;13.00;99.90
4596;DHT22;2310;49.978;8.742;2023-04-24T03:59:38;12.90;99.90
4596;DHT22;2310;49.978;8.742;2023-04-24T04:03:40;12.90;99.90
4596;DHT22;2310;49.978;8.742;2023-04-24T04:07:41;13.10;99.90
4596;DHT22;2310;49.978;8.742;2023-04-24T04:11:43;13.00;99.90
4596;DHT22;2310;49.978;8.742;2023-04-24T04:15:44;12.80;99.90
4596;DHT22;2310;49.978;8.742;2023-04-24T04:19:45;12.80;99.90
4596;DHT22;2310;49.978;8.742;2023-04-24T04:23:46;12.70;99.90
4596;DHT22;2310;49.978;8.742;2023-04-24T04:27:47;12.70;99.90
4596;DHT22;2310;49.978;8.742;2023-04-24T04:31:49;12.50;99.90
4596;DHT22;2310;49.978;8.742;2023-04-24T04:35:51;12.50;99.90
4596;DHT22;2310;49.978;8.742;2023-04-24T04:39:53;12.60;99.90
4596;DHT22;2310;49.978;8.742;2023-04-24T04:43:55;12.60;99.90
4596;DHT22;2310;49.978;8.742;2023-04-24T04:47:59;12.60;99.90
4596;DHT22;2310;49.978;8.742;2023-04-24T04:52:02;12.50;99.90
4596;DHT22;2310;49.978;8.742;2023-04-24T04:56:03;12.40;99.90
4596;DHT22;2310;49.978;8.742;2023-04-24T05:00:05;12.40;99.90
4596;DHT22;2310;49.978;8.742;2023-04-24T05:04:08;12.50;99.90
4596;DHT22;2310;49.978;8.742;2023-04-24T05:08:10;12.40;99.90
4596;DHT22;2310;49.978;8.742;2023-04-24T05:12:13;12.70;99.90
4596;DHT22;2310;49.978;8.742;2023-04-24T05:16:14;12.80;99.90
4596;DHT22;2310;49.978;8.742;2023-04-24T05:20:15;12.90;99.90
4596;DHT22;2310;49.978;8.742;2023-04-24T05:24:16;12.80;99.90
4596;DHT22;2310;49.978;8.742;2023-04-24T05:28:17;13.00;99.90
4596;DHT22;2310;49.978;8.742;2023-04-24T05:32:18;13.00;99.90
4596;DHT22;2310;49.978;8.742;2023-04-24T05:36:20;13.20;99.90
4596;DHT22;2310;49.978;8.742;2023-04-24T05:40:21;13.40;99.90
4596;DHT22;2310;49.978;8.742;2023-04-24T05:44:22;13.40;99.90
4596;DHT22;2310;49.978;8.742;2023-04-24T05:48:23;13.50;99.90
4596;DHT22;2310;49.978;8.742;2023-04-24T05:52:24;13.40;99.90
4596;DHT22;2310;49.978;8.742;2023-04-24T05:56:26;13.40;99.90
4596;DHT22;2310;49.978;8.742;2023-04-24T06:00:27;13.50;99.90
4596;DHT22;2310;49.978;8.742;2023-04-24T06:04:29;13.50;99.90
4596;DHT22;2310;49.978;8.742;2023-04-24T06:08:32;13.40;99.90
4596;DHT22;2310;49.978;8.742;2023-04-24T06:12:33;13.60;99.90
4596;DHT22;2310;49.978;8.742;2023-04-24T06:16:34;13.80;99.90
4596;DHT22;2310;49.978;8.742;2023-04-24T06:20:36;13.90;99.90
4596;DHT22;2310;49.978;8.742;2023-04-24T06:24:37;13.60;99.90
4596;DHT22;2310;49.978;8.742;2023-04-24T06:28:38;13.70;99.90
4596;DHT22;2310;49.978;8.742;2023-04-24T06:32:39;13.40;99.90
4596;DHT22;2310;49.978;8.742;2023-04-24T06:36:41;13.50;99.90
4596;DHT22;2310;49.978;8.742;2023-04-24T06:40:42;13.30;99.90
4596;DHT22;2310;49.978;8.742;2023-04-24T06:44:46;14.20;99.90
4596;DHT22;2310;49.978;8.742;2023-04-24T06:48:47;15.00;99.90
4596;DHT22;2310;49.978;8.742;2023-04-24T06:52:48;15.10;99.90
4596;DHT22;2310;49.978;8.742;2023-04-24T06:56:49;15.10;99.90
4596;DHT22;2310;49.978;8.742;2023-04-24T07:00:52;14.90;99.90
4596;DHT22;2310;49.978;8.742;2023-04-24T07:04:53;14.90;99.90
4596;DHT22;2310;49.978;8.742;2023-04-24T07:08:54;14.60;99.90
4596;DHT22;2310;49.978;8.742;2023-04-24T07:12:56;14.50;99.90
4596;DHT22;2310;49.978;8.742;2023-04-24T07:16:58;14.80;99.90
4596;DHT22;2310;49.978;8.742;2023-04-24T07:20:59;15.00;99.90
4596;DHT22;2310;49.978;8.742;2023-04-24T07:25:00;14.90;99.90
4596;DHT22;2310;49.978;8.742;2023-04-24T07:29:02;15.20;99.90
4596;DHT22;2310;49.978;8.742;2023-04-24T07:33:03;15.50;99.90
4596;DHT22;2310;49.978;8.742;2023-04-24T07:37:04;15.60;99.90
4596;DHT22;2310;49.978;8.742;2023-04-24T07:41:06;15.50;99.90
4596;DHT22;2310;49.978;8.742;2023-04-24T07:45:07;15.20;99.90
4596;DHT22;2310;49.978;8.742;2023-04-24T07:49:08;14.80;99.90
4596;DHT22;2310;49.978;8.742;2023-04-24T07:53:12;15.10;99.90
4596;DHT22;2310;49.978;8.742;2023-04-24T07:57:13;15.30;99.90
4596;DHT22;2310;49.978;8.742;2023-04-24T08:01:15;15.80;99.90
4596;DHT22;2310;49.978;8.742;2023-04-24T08:05:16;16.00;99.90
4596;DHT22;2310;49.978;8.742;2023-04-24T08:09:18;15.50;99.90
4596;DHT22;2310;49.978;8.742;2023-04-24T08:13:19;15.40;99.90
4596;DHT22;2310;49.978;8.742;2023-04-24T08:17:21;15.30;99.90
4596;DHT22;2310;49.978;8.742;2023-04-24T08:21:22;15.80;99.90
4596;DHT22;2310;49.978;8.742;2023-04-24T08:25:24;16.00;99.90
4596;DHT22;2310;49.978;8.742;2023-04-24T08:29:25;15.90;99.70
4596;DHT22;2310;49.978;8.742;2023-04-24T08:33:27;16.70;96.40
4596;DHT22;2310;49.978;8.742;2023-04-24T08:37:30;16.90;95.60
4596;DHT22;2310;49.978;8.742;2023-04-24T08:41:34;17.00;96.00
4596;DHT22;2310;49.978;8.742;2023-04-24T08:45:36;16.90;95.50
4596;DHT22;2310;49.978;8.742;2023-04-24T08:49:38;17.40;91.80
4596;DHT22;2310;49.978;8.742;2023-04-24T08:53:40;17.90;86.70
4596;DHT22;2310;49.978;8.742;2023-04-24T08:57:41;17.90;83.50
4596;DHT22;2310;49.978;8.742;2023-04-24T09:01:44;17.80;83.80
4596;DHT22;2310;49.978;8.742;2023-04-24T09:05:47;17.50;90.50
4596;DHT22;2310;49.978;8.742;2023-04-24T09:09:50;17.00;91.70
4596;DHT22;2310;49.978;8.742;2023-04-24T09:13:53;16.40;96.60
4596;DHT22;2310;49.978;8.742;2023-04-24T09:17:54;16.10;99.60
4596;DHT22;2310;49.978;8.742;2023-04-24T09:21:56;15.70;99.90
4596;DHT22;2310;49.978;8.742;2023-04-24T09:25:59;15.50;99.90
4596;DHT22;2310;49.978;8.742;2023-04-24T09:30:02;15.40;99.90
4596;DHT22;2310;49.978;8.742;2023-04-24T09:34:04;15.40;99.90
4596;DHT22;2310;49.978;8.742;2023-04-24T09:38:09;15.30;99.90
4596;DHT22;2310;49.978;8.742;2023-04-24T09:42:11;14.90;99.90
4596;DHT22;2310;49.978;8.742;2023-04-24T09:46:12;14.60;99.90
4596;DHT22;2310;49.978;8.742;2023-04-24T09:50:16;14.50;99.90
4596;DHT22;2310;49.978;8.742;2023-04-24T09:54:20;14.50;99.90
4596;DHT22;2310;49.978;8.742;2023-04-24T09:58:25;14.60;99.90
4596;DHT22;2310;49.978;8.742;2023-04-24T10:02:29;14.50;99.90
4596;DHT22;2310;49.978;8.742;2023-04-24T10:06:35;14.10;99.90
4596;DHT22;2310;49.978;8.742;2023-04-24T10:10:41;14.20;99.90
4596;DHT22;2310;49.978;8.742;2023-04-24T10:14:45;14.50;99.90
4596;DHT22;2310;49.978;8.742;2023-04-24T10:18:49;14.70;99.90
4596;DHT22;2310;49.978;8.742;2023-04-24T10:22:52;14.70;99.90
4596;DHT22;2310;49.978;8.742;2023-04-24T10:26:54;14.60;99.90
4596;DHT22;2310;49.978;8.742;2023-04-24T10:30:58;14.60;99.90
4596;DHT22;2310;49.978;8.742;2023-04-24T10:34:59;14.30;99.90
4596;DHT22;2310;49.978;8.742;2023-04-24T10:39:03;14.10;99.90
4596;DHT22;2310;49.978;8.742;2023-04-24T10:43:07;14.10;99.90
4596;DHT22;2310;49.978;8.742;2023-04-24T10:47:13;14.40;99.90
4596;DHT22;2310;49.978;8.742;2023-04-24T10:51:15;14.50;99.90
4596;DHT22;2310;49.978;8.742;2023-04-24T10:55:20;14.70;99.90
4596;DHT22;2310;49.978;8.742;2023-04-24T10:59:27;14.80;99.90
4596;DHT22;2310;49.978;8.742;2023-04-24T11:03:32;14.60;99.90
4596;DHT22;2310;49.978;8.742;2023-04-24T11:08:09;14.40;99.90
4596;DHT22;2310;49.978;8.742;2023-04-24T11:12:12;14.20;99.90
4596;DHT22;2310;49.978;8.742;2023-04-24T11:20:23;14.40;99.90
4596;DHT22;2310;49.978;8.742;2023-04-24T11:28:44;14.60;99.90
4596;DHT22;2310;49.978;8.742;2023-04-24T11:32:47;14.50;99.90
4596;DHT22;2310;49.978;8.742;2023-04-24T11:36:49;14.70;99.90
4596;DHT22;2310;49.978;8.742;2023-04-24T11:40:51;15.40;99.90
4596;DHT22;2310;49.978;8.742;2023-04-24T11:44:53;15.30;99.90
4596;DHT22;2310;49.978;8.742;2023-04-24T11:48:56;15.10;99.90
4596;DHT22;2310;49.978;8.742;2023-04-24T11:52:58;14.70;99.90
4596;DHT22;2310;49.978;8.742;2023-04-24T11:57:06;14.60;99.90
4596;DHT22;2310;49.978;8.742;2023-04-24T12:01:07;14.40;99.90
4596;DHT22;2310;49.978;8.742;2023-04-24T12:05:08;14.30;99.90
4596;DHT22;2310;49.978;8.742;2023-04-24T12:09:10;14.20;99.90
4596;DHT22;2310;49.978;8.742;2023-04-24T12:13:15;14.10;99.90
4596;DHT22;2310;49.978;8.742;2023-04-24T12:17:16;14.60;99.90
4596;DHT22;2310;49.978;8.742;2023-04-24T12:21:20;14.90;99.90
4596;DHT22;2310;49.978;8.742;2023-04-24T12:25:26;15.10;99.90
4596;DHT22;2310;49.978;8.742;2023-04-24T12:29:27;15.10;99.90
4596;DHT22;2310;49.978;8.742;2023-04-24T12:33:34;15.30;99.90
4596;DHT22;2310;49.978;8.742;2023-04-24T12:37:36;15.50;99.90
4596;DHT22;2310;49.978;8.742;2023-04-24T12:41:37;16.10;99.90
4596;DHT22;2310;49.978;8.742;2023-04-24T12:45:38;15.80;99.90
4596;DHT22;2310;49.978;8.742;2023-04-24T12:49:39;15.00;99.90
4596;DHT22;2310;49.978;8.742;2023-04-24T12:53:42;14.20;99.90
4596;DHT22;2310;49.978;8.742;2023-04-24T12:57:44;14.10;99.90
4596;DHT22;2310;49.978;8.742;2023-04-24T13:01:45;13.80;99.90
4596;DHT22;2310;49.978;8.742;2023-04-24T13:05:47;13.70;99.90
4596;DHT22;2310;49.978;8.742;2023-04-24T13:09:50;13.70;99.90
4596;DHT22;2310;49.978;8.742;2023-04-24T13:13:51;14.10;99.90
4596;DHT22;2310;49.978;8.742;2023-04-24T13:17:54;14.50;99.90
4596;DHT22;2310;49.978;8.742;2023-04-24T13:21:56;15.00;99.90
4596;DHT22;2310;49.978;8.742;2023-04-24T13:25:58;15.30;99.90
4596;DHT22;2310;49.978;8.742;2023-04-24T13:29:59;15.80;99.90
4596;DHT22;2310;49.978;8.742;2023-04-24T13:34:01;16.30;99.90
4596;DHT22;2310;49.978;8.742;2023-04-24T13:38:03;16.20;99.90
4596;DHT22;2310;49.978;8.742;2023-04-24T13:42:06;16.20;99.90
4596;DHT22;2310;49.978;8.742;2023-04-24T13:46:07;16.10;99.90
4596;DHT22;2310;49.978;8.742;2023-04-24T13:50:08;16.90;99.90
4596;DHT22;2310;49.978;8.742;2023-04-24T13:54:10;16.50;99.90
4596;DHT22;2310;49.978;8.742;2023-04-24T13:58:12;16.30;99.90
4596;DHT22;2310;49.978;8.742;2023-04-24T14:02:13;15.50;99.90
4596;DHT22;2310;49.978;8.742;2023-04-24T14:06:14;14.90;99.90
4596;DHT22;2310;49.978;8.742;2023-04-24T14:10:16;14.50;99.90
4596;DHT22;2310;49.978;8.742;2023-04-24T14:14:17;14.40;99.90
4596;DHT22;2310;49.978;8.742;2023-04-24T14:18:18;14.70;99.90
4596;DHT22;2310;49.978;8.742;2023-04-24T14:22:20;14.90;99.90
4596;DHT22;2310;49.978;8.742;2023-04-24T14:26:21;15.30;99.90
4596;DHT22;2310;49.978;8.742;2023-04-24T14:30:22;15.40;99.90
4596;DHT22;2310;49.978;8.742;2023-04-24T14:34:24;15.60;99.90
4596;DHT22;2310;49.978;8.742;2023-04-24T14:38:25;15.30;99.90
4596;DHT22;2310;49.978;8.742;2023-04-24T14:42:26;15.40;99.90
4596;DHT22;2310;49.978;8.742;2023-04-24T14:46:29;15.40;99.90
4596;DHT22;2310;49.978;8.742;2023-04-24T14:50:31;15.50;99.90
4596;DHT22;2310;49.978;8.742;2023-04-24T14:54:32;15.40;99.90
4596;DHT22;2310;49.978;8.742;2023-04-24T14:58:34;15.40;99.90
4596;DHT22;2310;49.978;8.742;2023-04-24T15:02:36;15.60;99.90
4596;DHT22;2310;49.978;8.742;2023-04-24T15:06:39;15.60;99.90
4596;DHT22;2310;49.978;8.742;2023-04-24T15:10:41;15.60;99.90
4596;DHT22;2310;49.978;8.742;2023-04-24T15:14:43;15.60;99.90
4596;DHT22;2310;49.978;8.742;2023-04-24T15:18:44;15.60;99.90
4596;DHT22;2310;49.978;8.742;2023-04-24T15:22:45;15.50;99.90
4596;DHT22;2310;49.978;8.742;2023-04-24T15:26:47;15.80;99.90
4596;DHT22;2310;49.978;8.742;2023-04-24T15:30:48;15.80;99.90
4596;DHT22;2310;49.978;8.742;2023-04-24T15:34:49;16.40;99.90
4596;DHT22;2310;49.978;8.742;2023-04-24T15:38:52;17.00;99.90
4596;DHT22;2310;49.978;8.742;2023-04-24T15:42:53;17.20;99.90
4596;DHT22;2310;49.978;8.742;2023-04-24T15:46:54;17.40;99.90
4596;DHT22;2310;49.978;8.742;2023-04-24T15:50:56;16.90;95.90
4596;DHT22;2310;49.978;8.742;2023-04-24T15:54:57;16.70;95.50
4596;DHT22;2310;49.978;8.742;2023-04-24T15:58:59;16.50;97.20
4596;DHT22;2310;49.978;8.742;2023-04-24T16:03:00;16.40;96.20
4596;DHT22;2310;49.978;8.742;2023-04-24T16:07:02;16.30;96.60
4596;DHT22;2310;49.978;8.742;2023-04-24T16:11:03;15.90;95.60
4596;DHT22;2310;49.978;8.742;2023-04-24T16:15:05;15.70;95.90
4596;DHT22;2310;49.978;8.742;2023-04-24T16:19:06;15.70;97.60
4596;DHT22;2310;49.978;8.742;2023-04-24T16:23:08;15.80;98.90
4596;DHT22;2310;49.978;8.742;2023-04-24T16:27:09;15.60;99.90
4596;DHT22;2310;49.978;8.742;2023-04-24T16:31:11;15.50;99.90
4596;DHT22;2310;49.978;8.742;2023-04-24T16:35:12;15.40;99.90
4596;DHT22;2310;49.978;8.742;2023-04-24T16:39:13;15.30;99.90
4596;DHT22;2310;49.978;8.742;2023-04-24T16:43:15;15.30;99.90
4596;DHT22;2310;49.978;8.742;2023-04-24T16:47:16;15.30;99.90
4596;DHT22;2310;49.978;8.742;2023-04-24T16:51:17;15.40;99.90
4596;DHT22;2310;49.978;8.742;2023-04-24T16:55:18;15.50;99.90
4596;DHT22;2310;49.978;8.742;2023-04-24T16:59:20;15.60;99.90
4596;DHT22;2310;49.978;8.742;2023-04-24T17:03:21;15.60;99.90
4596;DHT22;2310;49.978;8.742;2023-04-24T17:07:23;15.70;99.90
4596;DHT22;2310;49.978;8.742;2023-04-24T17:11:24;15.60;99.90
4596;DHT22;2310;49.978;8.742;2023-04-24T17:15:26;15.30;99.90
4596;DHT22;2310;49.978;8.742;2023-04-24T17:19:27;15.10;99.90
4596;DHT22;2310;49.978;8.742;2023-04-24T17:23:28;15.00;99.90
4596;DHT22;2310;49.978;8.742;2023-04-24T17:27:29;15.10;99.90
4596;DHT22;2310;49.978;8.742;2023-04-24T17:31:31;14.80;99.90
4596;DHT22;2310;49.978;8.742;2023-04-24T17:35:32;14.80;99.90
4596;DHT22;2310;49.978;8.742;2023-04-24T17:39:33;14.70;99.90
4596;DHT22;2310;49.978;8.742;2023-04-24T17:43:34;14.70;99.90
4596;DHT22;2310;49.978;8.742;2023-04-24T17:47:36;14.70;99.90
4596;DHT22;2310;49.978;8.742;2023-04-24T17:51:37;14.70;99.90
4596;DHT22;2310;49.978;8.742;2023-04-24T17:55:39;14.30;99.90
4596;DHT22;2310;49.978;8.742;2023-04-24T17:59:40;13.90;99.90
4596;DHT22;2310;49.978;8.742;2023-04-24T18:03:41;13.70;99.90
4596;DHT22;2310;49.978;8.742;2023-04-24T18:07:44;13.50;99.90
4596;DHT22;2310;49.978;8.742;2023-04-24T18:11:50;13.30;99.90
4596;DHT22;2310;49.978;8.742;2023-04-24T18:15:53;12.90;99.90
4596;DHT22;2310;49.978;8.742;2023-04-24T18:19:55;12.80;99.90
4596;DHT22;2310;49.978;8.742;2023-04-24T18:23:56;13.00;99.90
4596;DHT22;2310;49.978;8.742;2023-04-24T18:27:59;13.00;99.90
4596;DHT22;2310;49.978;8.742;2023-04-24T18:32:00;12.80;99.90
4596;DHT22;2310;49.978;8.742;2023-04-24T18:36:01;13.00;99.90
4596;DHT22;2310;49.978;8.742;2023-04-24T18:40:05;13.00;99.90
4596;DHT22;2310;49.978;8.742;2023-04-24T18:44:06;13.00;99.90
4596;DHT22;2310;49.978;8.742;2023-04-24T18:48:09;13.00;99.90
4596;DHT22;2310;49.978;8.742;2023-04-24T18:52:10;13.20;99.90
4596;DHT22;2310;49.978;8.742;2023-04-24T18:56:11;13.10;99.90
4596;DHT22;2310;49.978;8.742;2023-04-24T19:00:13;12.70;99.90
4596;DHT22;2310;49.978;8.742;2023-04-24T19:04:14;12.60;99.90
4596;DHT22;2310;49.978;8.742;2023-04-24T19:08:16;12.60;99.90
4596;DHT22;2310;49.978;8.742;2023-04-24T19:12:17;12.70;99.90
4596;DHT22;2310;49.978;8.742;2023-04-24T19:16:20;12.80;99.90
4596;DHT22;2310;49.978;8.742;2023-04-24T19:20:21;12.80;99.90
4596;DHT22;2310;49.978;8.742;2023-04-24T19:24:23;12.80;99.90
4596;DHT22;2310;49.978;8.742;2023-04-24T19:28:25;12.70;99.90
4596;DHT22;2310;49.978;8.742;2023-04-24T19:32:26;12.70;99.90
4596;DHT22;2310;49.978;8.742;2023-04-24T19:36:28;12.70;99.90
4596;DHT22;2310;49.978;8.742;2023-04-24T19:40:31;12.80;99.90
4596;DHT22;2310;49.978;8.742;2023-04-24T19:44:32;12.60;99.90
4596;DHT22;2310;49.978;8.742;2023-04-24T19:48:34;12.50;99.90
4596;DHT22;2310;49.978;8.742;2023-04-24T19:52:35;12.50;99.90
4596;DHT22;2310;49.978;8.742;2023-04-24T19:56:37;12.70;99.90
4596;DHT22;2310;49.978;8.742;2023-04-24T20:00:38;12.60;99.90
4596;DHT22;2310;49.978;8.742;2023-04-24T20:04:41;12.60;99.90
4596;DHT22;2310;49.978;8.742;2023-04-24T20:08:42;12.60;99.90
4596;DHT22;2310;49.978;8.742;2023-04-24T20:12:44;12.60;99.90
4596;DHT22;2310;49.978;8.742;2023-04-24T20:16:45;12.70;99.90
4596;DHT22;2310;49.978;8.742;2023-04-24T20:20:47;12.60;99.90
4596;DHT22;2310;49.978;8.742;2023-04-24T20:24:48;12.70;99.90
4596;DHT22;2310;49.978;8.742;2023-04-24T20:28:50;12.70;99.90
4596;DHT22;2310;49.978;8.742;2023-04-24T20:32:52;12.70;99.90
4596;DHT22;2310;49.978;8.742;2023-04-24T20:36:53;12.70;99.90
4596;DHT22;2310;49.978;8.742;2023-04-24T20:40:56;12.70;99.90
4596;DHT22;2310;49.978;8.742;2023-04-24T20:45:00;12.60;99.90
4596;DHT22;2310;49.978;8.742;2023-04-24T20:49:03;12.60;99.90
4596;DHT22;2310;49.978;8.742;2023-04-24T20:53:11;12.60;99.90
4596;DHT22;2310;49.978;8.742;2023-04-24T20:57:12;12.60;99.90
4596;DHT22;2310;49.978;8.742;2023-04-24T21:01:14;12.50;99.90
4596;DHT22;2310;49.978;8.742;2023-04-24T21:05:16;12.60;99.90
4596;DHT22;2310;49.978;8.742;2023-04-24T21:09:17;12.50;99.90
4596;DHT22;2310;49.978;8.742;2023-04-24T21:13:18;12.50;99.90
4596;DHT22;2310;49.978;8.742;2023-04-24T21:17:20;12.60;99.90
4596;DHT22;2310;49.978;8.742;2023-04-24T21:21:21;12.60;99.90
4596;DHT22;2310;49.978;8.742;2023-04-24T21:25:22;12.60;99.90
4596;DHT22;2310;49.978;8.742;2023-04-24T21:29:24;12.60;99.90
4596;DHT22;2310;49.978;8.742;2023-04-24T21:33:25;12.50;99.90
4596;DHT22;2310;49.978;8.742;2023-04-24T21:37:26;12.60;99.90
4596;DHT22;2310;49.978;8.742;2023-04-24T21:41:28;12.60;99.90
4596;DHT22;2310;49.978;8.742;2023-04-24T21:45:29;12.60;99.90
4596;DHT22;2310;49.978;8.742;2023-04-24T21:49:32;12.40;99.90
4596;DHT22;2310;49.978;8.742;2023-04-24T21:53:33;12.50;99.90
4596;DHT22;2310;49.978;8.742;2023-04-24T21:57:34;12.50;99.90
4596;DHT22;2310;49.978;8.742;2023-04-24T22:01:35;12.50;99.90
4596;DHT22;2310;49.978;8.742;2023-04-24T22:05:37;12.50;99.90
4596;DHT22;2310;49.978;8.742;2023-04-24T22:09:38;12.50;99.90
4596;DHT22;2310;49.978;8.742;2023-04-24T22:13:39;12.40;99.90
4596;DHT22;2310;49.978;8.742;2023-04-24T22:17:40;12.50;99.90
4596;DHT22;2310;49.978;8.742;2023-04-24T22:21:42;12.40;99.90
4596;DHT22;2310;49.978;8.742;2023-04-24T22:25:43;12.40;99.90
4596;DHT22;2310;49.978;8.742;2023-04-24T22:29:44;12.30;99.90
4596;DHT22;2310;49.978;8.742;2023-04-24T22:33:45;12.30;99.90
4596;DHT22;2310;49.978;8.742;2023-04-24T22:37:55;12.30;99.90
4596;DHT22;2310;49.978;8.742;2023-04-24T22:41:56;12.30;99.90
4596;DHT22;2310;49.978;8.742;2023-04-24T22:45:57;12.30;99.90
4596;DHT22;2310;49.978;8.742;2023-04-24T22:49:58;12.30;99.90
4596;DHT22;2310;49.978;8.742;2023-04-24T22:54:02;12.30;99.90
4596;DHT22;2310;49.978;8.742;2023-04-24T22:58:04;12.10;99.90
4596;DHT22;2310;49.978;8.742;2023-04-24T23:02:06;12.10;99.90
4596;DHT22;2310;49.978;8.742;2023-04-24T23:06:08;12.00;99.90
4596;DHT22;2310;49.978;8.742;2023-04-24T23:10:09;11.90;99.90
4596;DHT22;2310;49.978;8.742;2023-04-24T23:14:10;11.90;99.90
4596;DHT22;2310;49.978;8.742;2023-04-24T23:18:11;11.80;99.90
4596;DHT22;2310;49.978;8.742;2023-04-24T23:22:13;11.80;99.90
4596;DHT22;2310;49.978;8.742;2023-04-24T23:26:14;11.60;99.90
4596;DHT22;2310;49.978;8.742;2023-04-24T23:30:15;11.70;99.90
4596;DHT22;2310;49.978;8.742;2023-04-24T23:34:17;11.70;99.90
4596;DHT22;2310;49.978;8.742;2023-04-24T23:38:20;11.60;99.90
4596;DHT22;2310;49.978;8.742;2023-04-24T23:42:21;11.60;99.90
4596;DHT22;2310;49.978;8.742;2023-04-24T23:46:22;11.60;99.90
4596;DHT22;2310;49.978;8.742;2023-04-24T23:50:23;11.60;99.90
4596;DHT22;2310;49.978;8.742;2023-04-24T23:54:25;11.50;99.90
4596;DHT22;2310;49.978;8.742;2023-04-24T23:58:26;11.60;99.90
